Time;durP1;ratioP1;P1;durP2;ratioP2;P2;SDS_P1;SDS_P2;PMS_P1;PMS_P2;Temp;Humidity;BMP_temperature;BMP_pressure;BME280_temperature;BME280_humidity;BME280_pressure;Samples;Min_cycle;Max_cycle;Signal;HPM_P1;HPM_P2
2024/01/31 00:01:37;;;;;;;1.20;1.10;;;18.60;41.80;;;;;;5026053;28;20261;-71
2024/01/31 00:04:03;;;;;;;1.30;1.20;;;18.60;41.70;;;;;;5028429;28;20530;-70
2024/01/31 00:06:29;;;;;;;1.40;1.30;;;18.60;41.80;;;;;;5028075;28;20437;-71
2024/01/31 00:08:56;;;;;;;1.50;1.40;;;18.60;41.80;;;;;;5030669;28;20442;-71
2024/01/31 00:11:23;;;;;;;1.77;1.30;;;18.60;41.80;;;;;;5029602;28;20218;-71
2024/01/31 00:13:48;;;;;;;1.47;1.33;;;18.60;41.70;;;;;;5036433;28;21022;-71
2024/01/31 00:16:14;;;;;;;1.40;1.30;;;18.60;41.80;;;;;;5030940;28;20476;-71
2024/01/31 00:18:40;;;;;;;1.50;1.40;;;18.60;41.80;;;;;;5018380;28;20230;-71
2024/01/31 00:21:06;;;;;;;1.57;1.47;;;18.60;41.80;;;;;;5027033;28;20222;-73
2024/01/31 00:23:31;;;;;;;1.43;1.33;;;18.60;41.80;;;;;;5035258;28;20460;-74
2024/01/31 00:25:57;;;;;;;1.40;1.30;;;18.60;41.80;;;;;;5027728;28;20215;-74
2024/01/31 00:28:23;;;;;;;1.30;1.20;;;18.60;41.80;;;;;;5021572;28;20341;-73
2024/01/31 00:30:49;;;;;;;1.40;1.30;;;18.60;41.80;;;;;;5017268;28;21100;-73
2024/01/31 00:33:14;;;;;;;1.13;1.03;;;18.60;41.80;;;;;;5015587;28;20300;-73
2024/01/31 00:35:40;;;;;;;1.40;1.30;;;18.60;41.80;;;;;;5030146;28;20216;-74
2024/01/31 00:38:05;;;;;;;1.50;1.40;;;18.60;41.80;;;;;;5034239;28;20301;-74
2024/01/31 00:40:31;;;;;;;1.50;1.40;;;18.60;41.80;;;;;;5025841;28;20766;-72
2024/01/31 00:42:56;;;;;;;1.33;1.23;;;18.60;41.80;;;;;;5009126;28;20219;-72
2024/01/31 00:45:23;;;;;;;1.63;1.53;;;18.60;41.80;;;;;;5028782;28;20315;-71
2024/01/31 00:47:49;;;;;;;1.30;1.20;;;18.60;41.80;;;;;;5013637;28;20571;-72
2024/01/31 00:50:14;;;;;;;1.40;1.30;;;18.60;41.80;;;;;;5024334;28;20442;-72
2024/01/31 00:52:44;;;;;;;1.80;1.70;;;18.60;41.90;;;;;;5033651;28;20233;-72
2024/01/31 00:55:09;;;;;;;1.40;1.30;;;18.60;41.90;;;;;;5045483;28;20250;-72
2024/01/31 00:57:35;;;;;;;1.30;1.20;;;18.60;41.80;;;;;;5012481;28;20525;-73
2024/01/31 01:00:05;;;;;;;1.30;1.20;;;18.60;41.80;;;;;;5018291;28;20278;-72
2024/01/31 01:02:31;;;;;;;1.50;1.40;;;18.60;41.90;;;;;;5010806;28;21386;-72
2024/01/31 01:04:57;;;;;;;1.60;1.50;;;18.60;41.90;;;;;;5014434;28;20480;-72
2024/01/31 01:07:22;;;;;;;1.60;1.50;;;18.60;41.90;;;;;;5028400;28;20780;-72
2024/01/31 01:09:48;;;;;;;1.40;1.30;;;18.60;41.90;;;;;;5030168;28;20234;-72
2024/01/31 01:12:14;;;;;;;1.40;1.30;;;18.60;41.90;;;;;;5028202;28;20234;-72
2024/01/31 01:14:39;;;;;;;1.50;1.40;;;18.60;41.90;;;;;;5030599;28;20313;-72
2024/01/31 01:17:05;;;;;;;1.40;1.30;;;18.60;41.90;;;;;;5023103;28;20237;-72
2024/01/31 01:19:31;;;;;;;1.50;1.40;;;18.60;41.90;;;;;;5037162;28;20629;-72
2024/01/31 01:21:57;;;;;;;1.30;1.20;;;18.60;41.90;;;;;;5035818;28;20223;-72
2024/01/31 01:24:23;;;;;;;1.47;1.37;;;18.60;41.90;;;;;;5032388;28;20430;-71
2024/01/31 01:26:48;;;;;;;1.60;1.50;;;18.60;41.90;;;;;;5018042;28;20226;-72
2024/01/31 01:29:14;;;;;;;1.63;1.53;;;18.60;41.90;;;;;;5030085;28;20483;-72
2024/01/31 01:31:39;;;;;;;1.70;1.60;;;18.60;41.90;;;;;;5027222;28;20306;-70
2024/01/31 01:34:05;;;;;;;1.40;1.30;;;18.60;41.90;;;;;;5017731;28;20239;-70
2024/01/31 01:36:30;;;;;;;1.60;1.50;;;18.60;41.90;;;;;;5021818;28;20250;-70
2024/01/31 01:38:56;;;;;;;1.53;1.43;;;18.60;41.90;;;;;;5024944;28;20652;-71
2024/01/31 01:41:22;;;;;;;1.50;1.40;;;18.60;42.00;;;;;;5033505;28;20233;-71
2024/01/31 01:43:48;;;;;;;1.60;1.50;;;18.60;42.00;;;;;;5030173;28;20223;-70
2024/01/31 01:46:21;;;;;;;1.57;1.47;;;18.60;42.00;;;;;;5032876;28;20214;-70
2024/01/31 01:48:47;;;;;;;1.60;1.50;;;18.60;42.00;;;;;;5024648;28;20423;-70
2024/01/31 01:51:17;;;;;;;1.70;1.60;;;18.60;42.00;;;;;;5027638;28;20458;-70
2024/01/31 01:53:44;;;;;;;1.50;1.40;;;18.50;41.80;;;;;;5023066;28;20505;-69
2024/01/31 01:56:11;;;;;;;2.00;1.90;;;18.50;41.90;;;;;;5025087;28;20427;-69
2024/01/31 01:58:37;;;;;;;1.50;1.40;;;18.50;41.90;;;;;;5022982;28;20779;-69
2024/01/31 02:01:03;;;;;;;1.77;1.67;;;18.60;42.00;;;;;;5017739;28;20788;-69
2024/01/31 02:03:30;;;;;;;1.70;1.60;;;18.50;41.80;;;;;;5031086;28;20426;-70
2024/01/31 02:05:57;;;;;;;1.63;1.53;;;18.50;41.90;;;;;;5024256;28;20492;-69
2024/01/31 02:08:24;;;;;;;1.50;1.40;;;18.60;42.00;;;;;;5054553;28;21070;-71
2024/01/31 02:10:50;;;;;;;1.80;1.70;;;18.60;42.00;;;;;;5025792;28;20447;-70
2024/01/31 02:13:16;;;;;;;1.50;1.40;;;18.60;42.00;;;;;;5061075;28;20430;-69
2024/01/31 02:16:10;;;;;;;1.73;1.63;;;18.50;41.90;;;;;;5032931;28;20646;-69
2024/01/31 02:18:36;;;;;;;2.17;1.73;;;18.50;41.90;;;;;;5024382;28;20226;-70
2024/01/31 02:21:01;;;;;;;1.60;1.50;;;18.60;42.00;;;;;;5016807;28;20443;-70
2024/01/31 02:23:27;;;;;;;1.60;1.50;;;18.50;42.00;;;;;;5018974;28;20673;-69
2024/01/31 02:25:53;;;;;;;1.73;1.63;;;18.50;42.00;;;;;;5026273;28;20218;-69
2024/01/31 02:28:18;;;;;;;2.30;1.43;;;18.50;42.00;;;;;;5023734;28;20221;-69
2024/01/31 02:30:44;;;;;;;1.70;1.60;;;18.50;42.00;;;;;;5020239;28;20236;-70
2024/01/31 02:33:09;;;;;;;1.40;1.30;;;18.50;41.90;;;;;;5030215;28;20233;-70
2024/01/31 02:35:35;;;;;;;1.53;1.43;;;18.60;42.00;;;;;;5025790;28;20229;-71
2024/01/31 02:38:01;;;;;;;2.00;1.90;;;18.60;42.00;;;;;;5025851;28;20327;-70
2024/01/31 02:40:28;;;;;;;1.53;1.43;;;18.60;42.00;;;;;;5032246;28;20217;-69
2024/01/31 02:42:54;;;;;;;1.60;1.50;;;18.60;42.00;;;;;;5037930;28;20445;-69
2024/01/31 02:45:19;;;;;;;1.63;1.53;;;18.50;42.00;;;;;;5024973;28;20468;-70
2024/01/31 02:47:45;;;;;;;1.57;1.47;;;18.50;42.00;;;;;;5025893;28;20306;-70
2024/01/31 02:50:10;;;;;;;1.70;1.60;;;18.50;42.00;;;;;;5025000;28;20227;-71
2024/01/31 02:52:36;;;;;;;1.70;1.60;;;18.50;42.00;;;;;;5015970;28;20226;-70
2024/01/31 02:55:03;;;;;;;1.70;1.60;;;18.60;42.00;;;;;;5019511;28;20301;-70
2024/01/31 02:57:30;;;;;;;1.50;1.40;;;18.50;42.00;;;;;;5020045;28;20550;-69
2024/01/31 02:59:55;;;;;;;1.50;1.40;;;18.50;42.00;;;;;;5012288;28;20557;-69
2024/01/31 03:02:21;;;;;;;1.50;1.40;;;18.50;42.00;;;;;;5018546;28;20460;-69
2024/01/31 03:04:47;;;;;;;1.60;1.50;;;18.50;42.00;;;;;;5016829;28;20223;-69
2024/01/31 03:07:12;;;;;;;1.47;1.37;;;18.50;42.00;;;;;;5020575;28;20226;-71
2024/01/31 03:09:38;;;;;;;1.37;1.27;;;18.50;42.00;;;;;;5031089;28;20350;-70
2024/01/31 03:12:05;;;;;;;1.50;1.40;;;18.50;42.00;;;;;;5028632;28;20221;-69
2024/01/31 03:14:34;;;;;;;1.40;1.30;;;18.50;42.00;;;;;;5021355;28;20797;-70
2024/01/31 03:17:00;;;;;;;1.53;1.43;;;18.50;42.00;;;;;;5022969;28;20463;-69
2024/01/31 03:19:28;;;;;;;1.20;1.10;;;18.50;42.00;;;;;;5022568;28;20437;-69
2024/01/31 03:21:54;;;;;;;1.40;1.30;;;18.50;42.00;;;;;;5016979;28;21020;-70
2024/01/31 03:24:23;;;;;;;1.00;1.00;;;18.50;42.00;;;;;;5046300;28;20503;-70
2024/01/31 03:26:48;;;;;;;1.57;1.47;;;18.50;42.00;;;;;;5062674;28;20229;-70
2024/01/31 03:29:14;;;;;;;1.50;1.40;;;18.50;42.00;;;;;;5021852;28;20435;-69
2024/01/31 03:31:40;;;;;;;1.30;1.20;;;18.50;42.00;;;;;;5024213;28;20584;-71
2024/01/31 03:34:05;;;;;;;1.40;1.30;;;18.50;42.00;;;;;;5034177;28;20220;-70
2024/01/31 03:36:32;;;;;;;1.57;1.47;;;18.50;42.00;;;;;;5020897;28;20226;-69
2024/01/31 03:38:59;;;;;;;1.30;1.20;;;18.50;42.00;;;;;;5025114;28;20217;-72
2024/01/31 03:41:25;;;;;;;1.20;1.10;;;18.50;42.00;;;;;;5034300;28;20793;-69
2024/01/31 03:43:50;;;;;;;1.30;1.20;;;18.50;42.00;;;;;;5029159;28;20449;-69
2024/01/31 03:46:16;;;;;;;1.30;1.20;;;18.50;42.00;;;;;;5028332;28;20513;-70
2024/01/31 03:48:42;;;;;;;1.30;1.20;;;18.50;42.00;;;;;;5027856;28;20755;-69
2024/01/31 03:51:20;;;;;;;1.20;1.10;;;18.50;42.00;;;;;;5021906;28;20706;-70
2024/01/31 03:53:49;;;;;;;1.40;1.30;;;18.50;42.00;;;;;;5024601;28;20293;-69
2024/01/31 03:56:15;;;;;;;1.40;1.30;;;18.50;42.00;;;;;;5016350;28;20431;-70
2024/01/31 03:58:41;;;;;;;1.50;1.40;;;18.50;42.00;;;;;;5031709;28;20431;-70
2024/01/31 04:01:07;;;;;;;1.30;1.20;;;18.50;42.00;;;;;;5027079;28;20996;-71
2024/01/31 04:03:33;;;;;;;1.30;1.20;;;18.50;42.00;;;;;;5055022;28;20773;-71
2024/01/31 04:05:59;;;;;;;1.23;1.13;;;18.50;42.00;;;;;;5019039;28;20441;-71
2024/01/31 04:08:24;;;;;;;1.40;1.30;;;18.50;42.00;;;;;;5025240;28;20229;-72
2024/01/31 04:10:52;;;;;;;1.20;1.10;;;18.50;42.00;;;;;;5024372;28;20221;-72
2024/01/31 04:13:18;;;;;;;0.90;0.80;;;18.50;42.00;;;;;;5019801;28;20285;-73
2024/01/31 04:15:44;;;;;;;1.30;1.20;;;18.50;42.00;;;;;;5017058;28;20888;-72
2024/01/31 04:18:10;;;;;;;1.00;1.00;;;18.50;42.00;;;;;;5057876;28;20446;-72
2024/01/31 04:20:38;;;;;;;1.40;1.30;;;18.50;42.00;;;;;;5040348;28;20793;-72
2024/01/31 04:23:04;;;;;;;1.27;1.17;;;18.50;41.90;;;;;;5041722;28;20309;-72
2024/01/31 04:25:29;;;;;;;1.17;1.07;;;18.50;42.00;;;;;;5032402;28;20477;-72
2024/01/31 04:27:55;;;;;;;1.40;1.30;;;18.50;42.00;;;;;;5035977;28;20849;-72
2024/01/31 04:30:20;;;;;;;1.40;1.30;;;18.50;42.00;;;;;;5031477;28;20230;-72
2024/01/31 04:32:46;;;;;;;1.17;1.07;;;18.50;41.90;;;;;;5030429;28;20921;-73
2024/01/31 04:35:12;;;;;;;1.47;1.37;;;18.50;41.90;;;;;;5021054;28;20236;-72
2024/01/31 04:37:38;;;;;;;1.20;1.10;;;18.50;42.00;;;;;;5033124;28;20249;-72
2024/01/31 04:40:04;;;;;;;1.30;1.20;;;18.50;41.90;;;;;;5026371;28;20542;-72
2024/01/31 04:42:31;;;;;;;1.10;1.00;;;18.50;41.90;;;;;;5027447;28;20463;-71
2024/01/31 04:44:56;;;;;;;1.20;1.10;;;18.50;42.00;;;;;;5025073;28;20532;-72
2024/01/31 04:47:25;;;;;;;1.30;1.20;;;18.60;42.00;;;;;;5027398;28;20509;-72
2024/01/31 04:49:56;;;;;;;1.23;1.13;;;18.60;42.00;;;;;;5024541;28;20678;-72
2024/01/31 04:52:22;;;;;;;1.40;1.30;;;18.60;42.00;;;;;;5034155;28;20792;-72
2024/01/31 04:54:48;;;;;;;1.40;1.10;;;18.50;41.80;;;;;;5060458;28;20514;-72
2024/01/31 04:57:13;;;;;;;4.10;1.33;;;18.50;41.90;;;;;;5028451;28;20433;-72
2024/01/31 04:59:40;;;;;;;1.17;1.07;;;18.60;41.90;;;;;;5031769;28;20895;-72
2024/01/31 05:02:07;;;;;;;1.43;1.33;;;18.60;41.90;;;;;;5031965;28;20214;-72
2024/01/31 05:04:33;;;;;;;1.33;1.17;;;18.60;41.90;;;;;;5034408;28;20515;-71
2024/01/31 05:06:58;;;;;;;1.10;1.00;;;18.60;41.90;;;;;;5032157;28;20455;-73
2024/01/31 05:09:24;;;;;;;1.77;1.10;;;18.60;41.80;;;;;;5019080;28;20450;-73
2024/01/31 05:11:50;;;;;;;1.10;1.00;;;18.60;41.80;;;;;;5012167;28;20244;-75
2024/01/31 05:14:16;;;;;;;1.40;1.30;;;18.60;41.80;;;;;;5021628;28;20321;-74
2024/01/31 05:16:42;;;;;;;1.17;1.07;;;18.60;41.70;;;;;;5019558;28;20230;-73
2024/01/31 05:19:11;;;;;;;1.10;1.00;;;18.60;41.70;;;;;;5037433;28;20232;-73
2024/01/31 05:21:50;;;;;;;1.27;1.17;;;18.70;41.70;;;;;;5016041;28;20468;-73
2024/01/31 05:24:16;;;;;;;1.20;1.10;;;18.70;41.70;;;;;;5031090;28;20445;-74
2024/01/31 05:26:44;;;;;;;1.43;1.33;;;18.70;41.70;;;;;;5025607;28;21030;-73
2024/01/31 05:29:10;;;;;;;1.20;1.10;;;18.70;41.70;;;;;;5021630;28;20483;-74
2024/01/31 05:31:35;;;;;;;1.20;1.10;;;18.70;41.70;;;;;;5020634;28;20992;-72
2024/01/31 05:34:01;;;;;;;1.20;1.10;;;18.70;41.70;;;;;;5025377;28;20694;-73
2024/01/31 05:36:27;;;;;;;0.90;0.87;;;18.70;41.70;;;;;;5018646;28;20230;-73
2024/01/31 05:38:54;;;;;;;0.90;0.90;;;18.70;41.70;;;;;;5016283;28;20236;-79
2024/01/31 05:41:19;;;;;;;1.17;1.00;;;18.70;41.70;;;;;;5032540;28;20434;-76
2024/01/31 05:43:46;;;;;;;1.00;0.90;;;18.70;41.60;;;;;;5015177;28;20227;-75
2024/01/31 05:46:15;;;;;;;1.30;1.20;;;18.70;41.60;;;;;;5007771;28;20237;-74
2024/01/31 05:48:42;;;;;;;1.10;1.00;;;18.70;41.70;;;;;;5017033;28;21260;-74
2024/01/31 05:51:07;;;;;;;1.20;1.10;;;18.70;41.60;;;;;;5020091;28;20993;-75
2024/01/31 05:53:33;;;;;;;1.20;1.10;;;18.70;41.60;;;;;;5028532;28;20445;-75
2024/01/31 05:55:59;;;;;;;0.87;0.80;;;18.70;41.70;;;;;;5003190;28;20222;-73
2024/01/31 05:58:24;;;;;;;1.40;1.10;;;18.70;41.60;;;;;;5028282;28;20265;-74
2024/01/31 06:00:52;;;;;;;1.10;1.00;;;18.70;41.70;;;;;;5021291;28;20254;-75
2024/01/31 06:03:18;;;;;;;1.20;1.10;;;18.70;41.60;;;;;;5021574;28;20215;-74
2024/01/31 06:05:44;;;;;;;1.97;1.00;;;18.70;41.60;;;;;;5013858;28;22682;-73
2024/01/31 06:08:09;;;;;;;2.50;1.20;;;18.70;41.60;;;;;;5038360;28;20230;-76
2024/01/31 06:10:38;;;;;;;2.20;1.13;;;18.70;42.40;;;;;;5036973;28;20593;-75
2024/01/31 06:13:04;;;;;;;1.30;1.07;;;18.70;42.50;;;;;;5027801;28;20226;-75
2024/01/31 06:15:29;;;;;;;3.00;1.10;;;18.70;41.60;;;;;;5019177;28;22010;-75
2024/01/31 06:17:55;;;;;;;1.13;1.03;;;18.80;41.70;;;;;;5028929;28;20244;-77
2024/01/31 06:20:20;;;;;;;1.73;1.30;;;18.70;41.60;;;;;;5035908;28;20226;-77
2024/01/31 06:22:46;;;;;;;2.60;1.10;;;18.70;41.60;;;;;;5034237;28;20612;-75
2024/01/31 06:25:11;;;;;;;1.27;1.07;;;18.70;41.60;;;;;;5021958;28;20254;-75
2024/01/31 06:27:37;;;;;;;3.13;1.10;;;18.80;41.70;;;;;;5022409;28;20275;-72
2024/01/31 06:30:04;;;;;;;2.80;1.00;;;18.80;41.60;;;;;;5032513;28;20612;-74
2024/01/31 06:32:32;;;;;;;1.00;0.90;;;18.80;41.60;;;;;;5038278;28;20219;-73
2024/01/31 06:34:59;;;;;;;3.57;1.30;;;18.80;41.70;;;;;;5027566;28;20825;-73
2024/01/31 06:37:25;;;;;;;1.23;1.13;;;18.80;41.60;;;;;;5031206;28;20601;-73
2024/01/31 06:39:50;;;;;;;1.30;1.20;;;18.80;41.70;;;;;;5029571;28;20896;-73
2024/01/31 06:42:16;;;;;;;1.73;1.13;;;18.70;41.60;;;;;;5015297;28;20226;-74
2024/01/31 06:44:41;;;;;;;5.80;1.30;;;18.70;41.60;;;;;;5014339;28;20238;-74
2024/01/31 06:47:07;;;;;;;1.30;1.20;;;18.70;41.60;;;;;;5015871;28;20234;-73
2024/01/31 06:49:33;;;;;;;1.00;0.90;;;18.70;41.60;;;;;;5031293;28;20218;-73
2024/01/31 06:52:02;;;;;;;1.00;0.90;;;18.70;41.90;;;;;;5021532;28;20249;-73
2024/01/31 06:54:28;;;;;;;1.53;1.10;;;18.70;41.60;;;;;;5035641;28;20300;-73
2024/01/31 06:56:53;;;;;;;1.20;1.10;;;18.80;41.70;;;;;;5023983;28;20577;-73
2024/01/31 06:59:21;;;;;;;1.47;1.10;;;18.70;41.70;;;;;;5023733;28;20215;-73
2024/01/31 07:01:47;;;;;;;1.20;1.10;;;18.80;41.70;;;;;;5024953;28;20337;-73
2024/01/31 07:04:13;;;;;;;1.10;1.00;;;18.80;41.70;;;;;;5019587;28;20806;-73
2024/01/31 07:06:38;;;;;;;1.23;1.13;;;18.70;41.70;;;;;;5028819;28;20209;-73
2024/01/31 07:09:04;;;;;;;1.40;1.30;;;18.80;41.70;;;;;;5025713;28;20628;-73
2024/01/31 07:11:30;;;;;;;1.30;1.07;;;18.80;41.70;;;;;;5026929;28;20305;-73
2024/01/31 07:13:55;;;;;;;1.30;1.20;;;18.80;41.70;;;;;;5028518;28;20230;-73
2024/01/31 07:16:21;;;;;;;1.40;1.10;;;18.80;41.70;;;;;;5025767;28;20686;-73
2024/01/31 07:18:47;;;;;;;1.47;1.37;;;18.80;41.70;;;;;;5033348;28;20273;-73
2024/01/31 07:21:23;;;;;;;0.93;0.90;;;18.70;41.70;;;;;;5036103;28;20222;-73
2024/01/31 07:23:48;;;;;;;1.13;1.00;;;18.80;41.70;;;;;;5015978;28;20218;-73
2024/01/31 07:26:24;;;;;;;1.20;1.10;;;18.80;41.70;;;;;;5023368;28;21307;-73
2024/01/31 07:28:50;;;;;;;1.00;0.90;;;18.80;42.50;;;;;;5018736;28;20242;-74
2024/01/31 07:31:16;;;;;;;1.50;1.40;;;18.80;41.80;;;;;;5022625;28;20494;-74
2024/01/31 07:33:41;;;;;;;1.47;1.37;;;18.70;41.70;;;;;;5026692;28;20501;-74
2024/01/31 07:36:07;;;;;;;2.00;1.10;;;18.80;41.80;;;;;;5024106;28;20819;-73
2024/01/31 07:38:33;;;;;;;1.40;1.20;;;18.70;41.70;;;;;;5032604;28;20230;-73
2024/01/31 07:40:58;;;;;;;1.10;1.00;;;18.70;41.70;;;;;;5033258;28;20237;-73
2024/01/31 07:43:24;;;;;;;1.30;1.20;;;18.80;41.70;;;;;;5035891;28;20218;-73
2024/01/31 07:45:50;;;;;;;1.40;1.30;;;18.80;41.70;;;;;;5019644;28;20273;-73
2024/01/31 07:48:15;;;;;;;1.73;1.13;;;18.70;41.70;;;;;;5020371;28;20272;-76
2024/01/31 07:50:41;;;;;;;1.33;1.20;;;18.80;41.80;;;;;;5017223;28;20238;-77
2024/01/31 07:53:06;;;;;;;1.77;1.10;;;18.70;41.80;;;;;;5030303;28;20229;-77
2024/01/31 07:55:32;;;;;;;1.20;1.10;;;18.80;41.80;;;;;;5028419;28;20227;-78
2024/01/31 07:57:57;;;;;;;1.47;1.30;;;18.80;41.80;;;;;;5018311;28;20227;-77
2024/01/31 08:00:24;;;;;;;1.30;1.20;;;18.70;41.80;;;;;;5010686;28;21823;-76
2024/01/31 08:02:49;;;;;;;3.80;1.50;;;18.80;41.90;;;;;;5024023;28;21167;-77
2024/01/31 08:05:15;;;;;;;1.20;1.10;;;18.70;41.80;;;;;;5024016;28;20966;-79
2024/01/31 08:07:44;;;;;;;1.23;1.13;;;18.70;41.80;;;;;;5033039;28;20227;-78
2024/01/31 08:10:12;;;;;;;1.27;1.17;;;18.80;41.80;;;;;;5017410;28;20235;-76
2024/01/31 08:12:38;;;;;;;1.30;1.20;;;18.70;41.80;;;;;;5030271;28;20450;-77
2024/01/31 08:15:04;;;;;;;1.40;1.30;;;18.80;41.90;;;;;;5035203;28;20480;-76
2024/01/31 08:17:29;;;;;;;1.20;1.10;;;18.70;41.80;;;;;;5028657;28;20280;-77
2024/01/31 08:19:55;;;;;;;1.10;1.00;;;18.70;41.80;;;;;;5041394;28;21316;-76
2024/01/31 08:22:20;;;;;;;1.60;1.50;;;18.70;41.80;;;;;;5034440;28;20230;-78
2024/01/31 08:24:46;;;;;;;1.27;1.17;;;18.70;41.80;;;;;;5015043;28;20218;-79
2024/01/31 08:27:11;;;;;;;1.20;1.07;;;18.70;41.90;;;;;;5016903;28;20236;-80
2024/01/31 08:29:38;;;;;;;1.70;1.53;;;18.70;41.90;;;;;;5012797;28;20777;-78
2024/01/31 08:32:04;;;;;;;1.27;1.17;;;18.70;41.90;;;;;;5038465;28;20232;-77
2024/01/31 08:34:29;;;;;;;1.07;0.97;;;18.70;41.90;;;;;;5019427;28;20474;-77
2024/01/31 08:36:55;;;;;;;1.10;1.00;;;18.70;41.90;;;;;;5024893;28;20480;-76
2024/01/31 08:39:22;;;;;;;4.10;1.70;;;18.70;41.90;;;;;;5041862;28;20238;-77
2024/01/31 08:41:48;;;;;;;1.53;1.13;;;18.70;41.90;;;;;;5018490;28;20225;-77
2024/01/31 08:44:15;;;;;;;1.73;1.30;;;18.70;41.90;;;;;;5033421;28;20410;-77
2024/01/31 08:46:40;;;;;;;1.40;1.10;;;18.70;41.80;;;;;;5022266;28;20230;-77
2024/01/31 08:49:06;;;;;;;1.07;0.97;;;18.70;41.90;;;;;;5017526;28;20475;-76
2024/01/31 08:51:33;;;;;;;1.67;1.20;;;18.70;41.90;;;;;;5019970;28;20234;-74
2024/01/31 08:53:58;;;;;;;1.47;1.37;;;18.70;41.90;;;;;;5015477;28;21333;-74
2024/01/31 08:56:24;;;;;;;1.93;1.40;;;18.70;41.90;;;;;;5033226;28;20483;-75
2024/01/31 08:58:50;;;;;;;2.27;1.20;;;18.70;41.90;;;;;;5024069;28;20717;-75
2024/01/31 09:01:15;;;;;;;3.60;1.37;;;18.70;42.00;;;;;;5033620;28;20312;-74
2024/01/31 09:03:41;;;;;;;1.20;1.10;;;18.70;41.90;;;;;;5029630;28;20226;-75
2024/01/31 09:06:06;;;;;;;1.77;1.30;;;18.70;42.00;;;;;;5020853;28;20326;-75
2024/01/31 09:08:32;;;;;;;1.80;1.53;;;18.70;41.90;;;;;;5026616;28;20309;-74
2024/01/31 09:10:58;;;;;;;1.40;1.20;;;18.70;42.00;;;;;;5018396;28;20268;-75
2024/01/31 09:13:24;;;;;;;1.43;1.10;;;18.70;42.00;;;;;;5023863;28;20650;-74
2024/01/31 09:15:50;;;;;;;1.30;1.20;;;18.70;42.00;;;;;;5015502;28;20234;-74
2024/01/31 09:18:15;;;;;;;1.60;1.50;;;18.70;41.90;;;;;;5027309;28;20434;-74
2024/01/31 09:20:41;;;;;;;1.63;1.53;;;18.70;41.90;;;;;;5013377;28;20225;-74
2024/01/31 09:23:06;;;;;;;2.30;1.20;;;18.70;41.90;;;;;;5021091;28;20227;-74
2024/01/31 09:25:32;;;;;;;1.40;1.30;;;18.70;41.90;;;;;;5022384;28;20229;-74
2024/01/31 09:27:58;;;;;;;1.53;1.43;;;18.70;41.90;;;;;;5022454;28;20214;-74
2024/01/31 09:30:23;;;;;;;1.10;1.00;;;18.70;42.00;;;;;;5017195;28;20447;-75
2024/01/31 09:32:49;;;;;;;2.03;1.13;;;18.70;42.00;;;;;;5056292;28;20226;-75
2024/01/31 09:35:15;;;;;;;1.70;1.13;;;18.70;42.00;;;;;;5019743;28;20237;-74
2024/01/31 09:37:40;;;;;;;1.30;1.20;;;18.70;42.00;;;;;;5027767;28;20713;-73
2024/01/31 09:40:07;;;;;;;1.37;1.20;;;18.70;41.90;;;;;;5042183;28;20222;-74
2024/01/31 09:42:33;;;;;;;3.00;1.30;;;18.70;42.00;;;;;;5042100;28;20215;-74
2024/01/31 09:44:59;;;;;;;1.30;1.17;;;18.70;42.00;;;;;;5013314;28;20470;-74
2024/01/31 09:47:27;;;;;;;1.30;1.20;;;18.70;42.00;;;;;;5008435;28;20357;-74
2024/01/31 09:49:55;;;;;;;1.40;1.30;;;18.70;42.00;;;;;;5020665;28;20435;-75
2024/01/31 09:52:27;;;;;;;1.37;1.17;;;18.70;42.00;;;;;;5024155;28;20525;-75
2024/01/31 09:54:56;;;;;;;1.20;1.10;;;18.70;42.00;;;;;;5016910;28;20524;-76
2024/01/31 09:57:22;;;;;;;1.57;1.23;;;18.70;41.90;;;;;;5028325;28;20885;-75
2024/01/31 09:59:49;;;;;;;1.30;1.20;;;18.70;42.00;;;;;;5026871;28;20771;-74
2024/01/31 10:02:16;;;;;;;1.73;1.20;;;18.70;42.10;;;;;;5020043;28;20554;-73
2024/01/31 10:04:46;;;;;;;1.30;1.20;;;18.70;42.00;;;;;;5029117;28;20437;-73
2024/01/31 10:07:11;;;;;;;1.20;1.10;;;18.70;42.00;;;;;;5015851;28;20450;-72
2024/01/31 10:09:37;;;;;;;1.23;1.13;;;18.70;42.00;;;;;;5019974;28;21027;-75
2024/01/31 10:12:03;;;;;;;2.37;1.10;;;18.70;42.00;;;;;;5010567;28;20219;-76
2024/01/31 10:14:29;;;;;;;2.60;1.10;;;18.70;42.00;;;;;;5023954;28;20951;-77
2024/01/31 10:16:55;;;;;;;1.30;1.20;;;18.60;41.90;;;;;;5026199;28;20506;-75
2024/01/31 10:19:21;;;;;;;1.33;1.13;;;18.70;42.00;;;;;;5026043;28;20218;-75
2024/01/31 10:21:46;;;;;;;1.83;1.20;;;18.60;42.00;;;;;;5020051;28;20961;-74
2024/01/31 10:24:15;;;;;;;1.37;1.27;;;18.60;42.00;;;;;;5022695;28;20218;-74
2024/01/31 10:26:41;;;;;;;2.53;1.20;;;18.60;42.00;;;;;;5035741;28;21014;-74
2024/01/31 10:29:07;;;;;;;1.23;1.13;;;18.60;42.00;;;;;;5017032;28;20442;-73
2024/01/31 10:31:34;;;;;;;1.57;1.40;;;18.60;42.00;;;;;;5013519;28;20215;-76
2024/01/31 10:34:01;;;;;;;1.73;1.10;;;18.60;42.80;;;;;;5011086;28;20282;-73
2024/01/31 10:36:28;;;;;;;1.40;1.30;;;18.60;42.00;;;;;;5008247;28;20464;-75
2024/01/31 10:38:54;;;;;;;1.40;1.30;;;18.60;42.00;;;;;;5026121;28;21013;-75
2024/01/31 10:41:20;;;;;;;2.17;1.30;;;18.60;42.10;;;;;;5025162;28;20426;-76
2024/01/31 10:43:48;;;;;;;1.40;1.20;;;18.60;42.00;;;;;;5014478;28;20438;-76
2024/01/31 10:46:14;;;;;;;1.60;1.40;;;18.60;42.00;;;;;;5021249;28;20453;-75
2024/01/31 10:48:40;;;;;;;1.40;1.30;;;18.60;42.00;;;;;;5018722;28;20405;-73
2024/01/31 10:51:09;;;;;;;1.60;1.50;;;18.60;42.00;;;;;;5021839;28;20540;-78
2024/01/31 10:53:36;;;;;;;1.30;1.20;;;18.60;42.00;;;;;;5011919;28;20226;-77
2024/01/31 10:56:04;;;;;;;3.47;1.50;;;18.60;42.00;;;;;;5021269;28;20891;-77
2024/01/31 10:58:30;;;;;;;1.40;1.30;;;18.60;42.00;;;;;;5016858;28;21068;-75
2024/01/31 11:00:56;;;;;;;1.37;1.27;;;18.60;42.00;;;;;;5011216;28;20471;-80
2024/01/31 11:03:23;;;;;;;1.20;1.10;;;18.60;42.00;;;;;;5017515;28;20532;-80
2024/01/31 11:05:51;;;;;;;1.30;1.20;;;18.60;42.10;;;;;;5019663;28;20227;-79
2024/01/31 11:08:21;;;;;;;1.40;1.30;;;18.60;42.10;;;;;;5020533;28;20441;-78
2024/01/31 11:10:47;;;;;;;2.87;1.37;;;18.60;42.00;;;;;;5010594;28;20522;-78
2024/01/31 11:13:13;;;;;;;2.10;1.23;;;18.60;42.10;;;;;;5017862;28;21790;-78
2024/01/31 11:15:40;;;;;;;2.50;1.33;;;18.60;42.10;;;;;;5020752;28;21487;-79
2024/01/31 11:18:10;;;;;;;1.13;1.00;;;18.60;42.10;;;;;;5028619;28;20537;-78
2024/01/31 11:20:46;;;;;;;2.53;1.53;;;18.60;42.10;;;;;;5018677;28;20503;-79
2024/01/31 11:23:16;;;;;;;1.90;1.10;;;18.60;42.10;;;;;;5011297;28;20451;-79
2024/01/31 11:25:43;;;;;;;1.43;1.13;;;18.60;42.10;;;;;;5010618;28;20433;-78
2024/01/31 11:28:11;;;;;;;1.40;1.10;;;18.60;42.10;;;;;;5027843;28;20971;-78
2024/01/31 11:30:38;;;;;;;1.50;1.40;;;18.60;42.10;;;;;;5033762;28;20498;-78
2024/01/31 11:33:05;;;;;;;1.50;1.30;;;18.60;42.10;;;;;;5024600;28;20450;-78
2024/01/31 11:35:31;;;;;;;1.50;1.40;;;18.60;42.20;;;;;;5058757;28;20468;-78
2024/01/31 11:37:58;;;;;;;1.60;1.50;;;18.60;42.10;;;;;;5017443;28;21114;-78
2024/01/31 11:40:24;;;;;;;1.60;1.50;;;18.60;42.10;;;;;;5018075;28;21030;-78
2024/01/31 11:42:51;;;;;;;1.40;1.30;;;18.60;42.10;;;;;;5016537;28;20479;-78
2024/01/31 11:45:16;;;;;;;1.40;1.30;;;18.60;42.10;;;;;;5020270;28;20467;-76
2024/01/31 11:47:43;;;;;;;2.40;1.50;;;18.60;42.10;;;;;;5014392;28;20516;-78
2024/01/31 11:50:09;;;;;;;1.30;1.20;;;18.60;42.20;;;;;;5015685;28;20576;-77
2024/01/31 11:52:34;;;;;;;1.60;1.43;;;18.60;42.20;;;;;;5005490;28;20435;-77
2024/01/31 11:55:00;;;;;;;1.40;1.30;;;18.60;42.20;;;;;;5016642;28;20222;-78
2024/01/31 11:57:26;;;;;;;1.40;1.30;;;18.60;42.10;;;;;;5018627;28;20235;-79
2024/01/31 11:59:53;;;;;;;2.07;1.20;;;18.60;42.20;;;;;;5022192;28;20579;-79
2024/01/31 12:02:19;;;;;;;1.60;1.50;;;18.60;42.20;;;;;;5022825;28;20483;-77
2024/01/31 12:04:53;;;;;;;1.30;1.20;;;18.60;42.20;;;;;;5012522;28;20604;-77
2024/01/31 12:07:19;;;;;;;1.47;1.37;;;18.60;42.10;;;;;;5018812;28;20304;-77
2024/01/31 12:09:44;;;;;;;2.23;2.13;;;18.60;42.10;;;;;;5013498;28;20971;-78
2024/01/31 12:12:11;;;;;;;1.60;1.40;;;18.60;42.20;;;;;;5022871;28;20236;-77
2024/01/31 12:14:37;;;;;;;1.40;1.30;;;18.60;42.10;;;;;;5031589;28;20585;-77
2024/01/31 12:17:03;;;;;;;2.27;1.30;;;18.60;42.10;;;;;;5028450;28;20466;-75
2024/01/31 12:19:29;;;;;;;1.40;1.30;;;18.60;42.20;;;;;;5024682;28;20226;-75
2024/01/31 12:21:55;;;;;;;1.50;1.23;;;18.60;42.10;;;;;;5020339;28;20206;-78
2024/01/31 12:24:21;;;;;;;1.70;1.60;;;18.60;42.10;;;;;;5016412;28;20432;-78
2024/01/31 12:26:46;;;;;;;1.97;1.87;;;18.60;42.10;;;;;;5007580;28;20442;-78
2024/01/31 12:29:12;;;;;;;1.77;1.10;;;18.60;42.10;;;;;;5011839;28;20250;-77
2024/01/31 12:31:37;;;;;;;1.47;1.37;;;18.60;42.10;;;;;;5012081;28;20227;-77
2024/01/31 12:34:03;;;;;;;1.23;1.13;;;18.60;42.10;;;;;;5023703;28;20269;-76
2024/01/31 12:36:29;;;;;;;1.80;1.40;;;18.60;42.20;;;;;;5015961;28;20222;-76
2024/01/31 12:38:54;;;;;;;1.10;1.00;;;18.60;42.10;;;;;;5011915;28;20569;-73
2024/01/31 12:41:20;;;;;;;1.43;1.33;;;18.60;42.10;;;;;;5016103;28;20690;-75
2024/01/31 12:43:45;;;;;;;1.53;1.03;;;18.60;42.20;;;;;;5004268;28;20314;-74